Terminal Aerodrome Forecast
Issued by NWS

Home | Current Version | Previous Version | Text Only | Print | Product List | Glossary On
Versions: 1 2 3 4 5 6 7 8 9 10 11 12 13 14 15 16 17 18 19 20 21 22 23 24 25 26 27 28 29 30 31 32 33 34 35 36 37 38 39 40
000
FTUS44 KMOB 202340
TAFBFM
TAF
KBFM 202340Z 2100/2124 14008KT P6SM VCSH BKN025 OVC060
     FM210500 12006KT 4SM BR OVC005
      TEMPO 2108/2112 1/2SM FG VV003
     FM211500 14010KT 4SM BR BKN015
     FM211800 15011KT P6SM VCSH OVC025
      TEMPO 2118/2122 5SM TSRA BKN025CB=

USA.gov is the U.S. government's official web portal to all federal, state and local government web resources and services.